createdAt,value
2023-02-13T00:00:22.351Z,9.63
2023-02-13T00:02:50.054Z,9.68
2023-02-13T00:05:17.378Z,9.57
2023-02-13T00:07:44.529Z,9.41
2023-02-13T00:10:11.955Z,9.52
2023-02-13T00:12:39.129Z,9.37
2023-02-13T00:15:07.724Z,9.46
2023-02-13T00:17:35.270Z,9.44
2023-02-13T00:20:02.435Z,9.46
2023-02-13T00:22:29.617Z,9.40
2023-02-13T00:24:57.057Z,9.22
2023-02-13T00:27:24.310Z,9.26
2023-02-13T00:29:51.486Z,9.37
2023-02-13T00:32:20.245Z,8.91
2023-02-13T00:34:47.489Z,8.87
2023-02-13T00:37:14.646Z,8.21
2023-02-13T00:39:42.172Z,8.65
2023-02-13T00:42:10.458Z,8.14
2023-02-13T00:44:37.608Z,8.55
2023-02-13T00:47:05.075Z,8.88
2023-02-13T00:49:32.230Z,8.90
2023-02-13T00:52:01.764Z,8.84
2023-02-13T00:54:29.303Z,8.70
2023-02-13T00:56:56.447Z,8.92
2023-02-13T00:59:23.604Z,8.68
2023-02-13T01:01:51.078Z,8.52
2023-02-13T01:04:18.251Z,8.84
2023-02-13T01:06:45.410Z,8.84
2023-02-13T01:09:12.892Z,9.07
2023-02-13T01:11:40.042Z,8.77
2023-02-13T01:14:07.176Z,9.01
2023-02-13T01:16:34.629Z,8.93
2023-02-13T01:19:02.331Z,8.89
2023-02-13T01:21:31.796Z,8.94
2023-02-13T01:24:02.452Z,9.03
2023-02-13T01:26:29.593Z,9.12
2023-02-13T01:28:58.099Z,9.18
2023-02-13T01:31:26.049Z,9.30
2023-02-13T01:33:55.814Z,9.26
2023-02-13T01:36:22.972Z,9.29
2023-02-13T01:38:52.999Z,9.24
2023-02-13T01:41:20.255Z,9.14
2023-02-13T01:43:57.786Z,9.17
2023-02-13T01:46:39.429Z,9.08
2023-02-13T01:49:11.066Z,8.97
2023-02-13T01:51:38.501Z,8.98
2023-02-13T01:54:32.088Z,8.86
2023-02-13T01:57:01.319Z,8.95
2023-02-13T01:59:29.769Z,9.00
2023-02-13T02:01:57.372Z,9.05
2023-02-13T02:04:26.737Z,8.98
2023-02-13T02:06:55.844Z,9.01
2023-02-13T02:09:23.899Z,8.77
2023-02-13T02:11:52.747Z,8.77
2023-02-13T02:14:20.432Z,8.91
2023-02-13T02:16:47.579Z,9.15
2023-02-13T02:19:19.472Z,9.00
2023-02-13T02:22:02.691Z,9.13
2023-02-13T02:24:35.397Z,9.16
2023-02-13T02:27:24.384Z,9.24
2023-02-13T02:29:57.180Z,9.07
2023-02-13T02:32:24.479Z,8.99
2023-02-13T02:34:56.733Z,9.14
2023-02-13T02:37:42.701Z,9.05
2023-02-13T02:40:29.238Z,9.08
2023-02-13T02:43:16.677Z,9.15
2023-02-13T02:45:54.942Z,9.05
2023-02-13T02:49:00.083Z,8.99
2023-02-13T02:51:31.687Z,8.97
2023-02-13T02:54:02.806Z,9.14
2023-02-13T02:56:38.044Z,8.96
2023-02-13T02:59:24.787Z,9.02
2023-02-13T03:02:12.186Z,8.97
2023-02-13T03:04:58.164Z,9.06
2023-02-13T03:07:25.618Z,9.08
2023-02-13T03:10:12.453Z,8.94
2023-02-13T03:13:08.677Z,8.85
2023-02-13T03:15:58.264Z,8.85
2023-02-13T03:18:44.547Z,8.78
2023-02-13T03:21:33.307Z,8.93
2023-02-13T03:24:04.540Z,9.05
2023-02-13T03:26:46.195Z,8.92
2023-02-13T03:29:42.758Z,8.82
2023-02-13T03:32:19.721Z,8.94
2023-02-13T03:35:09.075Z,8.93
2023-02-13T03:37:54.745Z,8.73
2023-02-13T03:40:35.863Z,8.85
2023-02-13T03:43:11.082Z,8.87
2023-02-13T03:45:54.376Z,8.93
2023-02-13T03:48:44.546Z,8.77
2023-02-13T03:51:12.755Z,8.95
2023-02-13T03:53:39.953Z,8.74
2023-02-13T03:56:25.947Z,8.73
2023-02-13T03:59:12.576Z,8.66
2023-02-13T04:01:39.838Z,8.52
2023-02-13T04:04:33.501Z,8.50
2023-02-13T04:07:00.591Z,8.83
2023-02-13T04:09:28.405Z,8.65
2023-02-13T04:12:17.417Z,8.62
2023-02-13T04:14:53.398Z,8.71
2023-02-13T04:17:24.478Z,8.72
2023-02-13T04:19:51.911Z,8.75
2023-02-13T04:22:19.051Z,8.78
2023-02-13T04:24:46.343Z,9.03
2023-02-13T04:27:15.124Z,9.03
2023-02-13T04:29:42.278Z,8.90
2023-02-13T04:32:12.843Z,8.38
2023-02-13T04:34:40.277Z,8.36
2023-02-13T04:37:07.405Z,8.59
2023-02-13T04:39:34.999Z,8.63
2023-02-13T04:42:02.490Z,8.69
2023-02-13T04:44:29.626Z,8.74
2023-02-13T04:46:56.791Z,8.45
2023-02-13T04:49:24.221Z,8.63
2023-02-13T04:51:51.382Z,8.28
2023-02-13T04:54:18.538Z,8.48
2023-02-13T04:56:45.961Z,8.51
2023-02-13T04:59:13.212Z,8.46
2023-02-13T05:01:40.417Z,8.67
2023-02-13T05:04:07.943Z,8.45
2023-02-13T05:06:35.117Z,8.45
2023-02-13T05:09:02.251Z,8.26
2023-02-13T05:11:29.692Z,8.39
2023-02-13T05:13:56.837Z,8.33
2023-02-13T05:16:23.966Z,8.45
2023-02-13T05:18:54.874Z,8.52
2023-02-13T05:21:40.702Z,8.31
2023-02-13T05:24:08.151Z,8.23
2023-02-13T05:26:35.428Z,8.29
2023-02-13T05:29:22.602Z,8.34
2023-02-13T05:31:50.917Z,8.47
2023-02-13T05:34:20.298Z,8.43
2023-02-13T05:36:47.432Z,8.47
2023-02-13T05:39:15.399Z,8.51
2023-02-13T05:41:43.310Z,8.59
2023-02-13T05:44:13.000Z,8.55
2023-02-13T05:46:40.680Z,8.31
2023-02-13T05:49:08.086Z,8.41
2023-02-13T05:51:35.227Z,8.48
2023-02-13T05:54:03.003Z,8.53
2023-02-13T05:56:30.150Z,8.56
2023-02-13T05:58:57.502Z,8.69
2023-02-13T06:01:25.018Z,8.37
2023-02-13T06:03:52.488Z,8.42
2023-02-13T06:06:20.057Z,8.47
2023-02-13T06:08:47.198Z,8.43
2023-02-13T06:11:14.660Z,8.62
2023-02-13T06:13:41.800Z,8.41
2023-02-13T06:16:09.641Z,8.44
2023-02-13T06:18:37.289Z,8.36
2023-02-13T06:21:04.783Z,8.38
2023-02-13T06:23:31.958Z,8.52
2023-02-13T06:26:05.698Z,8.36
2023-02-13T06:28:33.159Z,8.10
2023-02-13T06:31:01.141Z,8.01
2023-02-13T06:33:28.727Z,8.15
2023-02-13T06:35:55.872Z,8.34
2023-02-13T06:38:24.338Z,8.19
2023-02-13T06:40:51.744Z,7.51
2023-02-13T06:43:19.001Z,7.36
2023-02-13T06:45:47.252Z,7.26
2023-02-13T06:48:14.731Z,7.68
2023-02-13T06:50:41.888Z,7.63
2023-02-13T06:53:09.345Z,7.47
2023-02-13T06:55:36.691Z,7.71
2023-02-13T06:58:03.869Z,7.41
2023-02-13T07:00:31.473Z,7.85
2023-02-13T07:03:02.816Z,8.02
2023-02-13T07:05:30.055Z,8.01
2023-02-13T07:07:58.458Z,8.26
2023-02-13T07:10:25.601Z,8.38
2023-02-13T07:13:05.037Z,8.58
2023-02-13T07:15:33.769Z,8.56
2023-02-13T07:18:01.159Z,8.64
2023-02-13T07:20:28.677Z,8.53
2023-02-13T07:23:03.906Z,8.66
2023-02-13T07:25:31.212Z,8.51
2023-02-13T07:28:05.143Z,8.65
2023-02-13T07:30:34.244Z,8.44
2023-02-13T07:33:02.044Z,8.21
2023-02-13T07:35:29.293Z,7.93
2023-02-13T07:37:56.457Z,8.12
2023-02-13T07:40:23.895Z,7.25
2023-02-13T07:42:51.031Z,7.60
2023-02-13T07:45:18.203Z,7.11
2023-02-13T07:47:45.630Z,8.16
2023-02-13T07:50:12.847Z,7.13
2023-02-13T07:52:40.062Z,7.36
2023-02-13T07:55:07.757Z,7.51
2023-02-13T07:57:34.885Z,7.57
2023-02-13T08:00:02.176Z,7.96
2023-02-13T08:02:38.899Z,8.08
2023-02-13T08:05:06.592Z,7.70
2023-02-13T08:07:33.788Z,8.03
2023-02-13T08:10:19.648Z,7.26
2023-02-13T08:12:47.093Z,8.27
2023-02-13T08:15:14.830Z,8.28
2023-02-13T08:17:41.980Z,8.11
2023-02-13T08:20:09.704Z,8.16
2023-02-13T08:22:37.015Z,8.50
2023-02-13T08:25:04.691Z,8.88
2023-02-13T08:27:32.236Z,8.29
2023-02-13T08:29:59.827Z,9.09
2023-02-13T08:32:26.975Z,9.27
2023-02-13T08:34:54.388Z,9.43
2023-02-13T08:37:21.543Z,9.75
2023-02-13T08:39:48.674Z,9.67
2023-02-13T08:42:16.503Z,9.42
2023-02-13T08:44:43.877Z,9.39
2023-02-13T08:47:11.013Z,9.66
2023-02-13T08:49:38.416Z,9.54
2023-02-13T08:52:05.903Z,9.44
2023-02-13T08:54:34.050Z,9.63
2023-02-13T08:57:01.497Z,9.33
2023-02-13T08:59:28.682Z,9.79
2023-02-13T09:01:56.745Z,9.52
2023-02-13T09:04:24.170Z,10.02
2023-02-13T09:06:51.322Z,10.51
2023-02-13T09:09:18.574Z,10.49
2023-02-13T09:11:45.999Z,9.11
2023-02-13T09:14:13.217Z,8.96
2023-02-13T09:16:40.409Z,9.46
2023-02-13T09:19:07.866Z,9.63
2023-02-13T09:21:35.299Z,9.64
2023-02-13T09:24:02.432Z,9.27
2023-02-13T09:26:29.878Z,9.64
2023-02-13T09:28:57.034Z,9.72
2023-02-13T09:31:24.435Z,10.04
2023-02-13T09:33:52.029Z,10.31
2023-02-13T09:36:20.308Z,10.57
2023-02-13T09:38:57.156Z,10.51
2023-02-13T09:41:39.927Z,11.02
2023-02-13T09:44:35.601Z,11.42
2023-02-13T09:47:21.744Z,11.64
2023-02-13T09:49:50.158Z,10.10
2023-02-13T09:52:17.704Z,10.56
2023-02-13T09:54:44.900Z,11.79
2023-02-13T09:57:29.438Z,12.00
2023-02-13T09:59:58.742Z,12.23
2023-02-13T10:02:31.966Z,12.21
2023-02-13T10:05:18.275Z,11.98
2023-02-13T10:08:03.937Z,12.12
2023-02-13T10:10:47.082Z,11.20
2023-02-13T10:13:23.669Z,12.03
2023-02-13T10:15:52.312Z,12.11
2023-02-13T10:18:20.612Z,12.20
2023-02-13T10:20:57.034Z,12.26
2023-02-13T10:23:40.654Z,12.41
2023-02-13T10:26:08.750Z,12.34
2023-02-13T10:28:44.958Z,12.51
2023-02-13T10:31:16.212Z,12.35
2023-02-13T10:33:48.086Z,13.13
2023-02-13T10:36:22.564Z,12.44
2023-02-13T10:38:53.009Z,11.82
2023-02-13T10:41:24.137Z,11.80
2023-02-13T10:44:02.190Z,11.76
2023-02-13T10:46:48.191Z,11.48
2023-02-13T10:49:25.091Z,11.58
2023-02-13T10:51:54.933Z,11.48
2023-02-13T10:54:25.225Z,10.67
2023-02-13T10:57:11.203Z,11.47
2023-02-13T10:59:45.601Z,11.59
2023-02-13T11:02:12.769Z,12.00
2023-02-13T11:04:41.553Z,12.30
2023-02-13T11:07:11.596Z,12.24
2023-02-13T11:09:40.294Z,10.91
2023-02-13T11:12:23.912Z,11.05
2023-02-13T11:15:00.364Z,10.55
2023-02-13T11:17:29.231Z,10.45
2023-02-13T11:19:57.315Z,10.34
2023-02-13T11:22:43.336Z,11.05
2023-02-13T11:25:24.098Z,10.89
2023-02-13T11:27:53.103Z,11.21
2023-02-13T11:30:23.523Z,11.18
2023-02-13T11:33:07.830Z,11.31
2023-02-13T11:35:35.981Z,11.27
2023-02-13T11:38:15.488Z,11.66
2023-02-13T11:40:45.058Z,11.83
2023-02-13T11:43:30.895Z,11.77
2023-02-13T11:46:16.476Z,11.73
2023-02-13T11:48:44.458Z,12.20
2023-02-13T11:51:12.001Z,11.24
2023-02-13T11:53:39.611Z,11.65
2023-02-13T11:56:14.296Z,11.77
2023-02-13T11:58:42.268Z,10.90
2023-02-13T12:01:21.763Z,11.54
2023-02-13T12:04:03.020Z,11.00
2023-02-13T12:06:30.907Z,11.45
2023-02-13T12:08:58.976Z,11.23
2023-02-13T12:11:37.222Z,10.77
2023-02-13T12:14:04.745Z,11.10
2023-02-13T12:16:34.178Z,11.58
2023-02-13T12:19:02.539Z,11.37
2023-02-13T12:21:48.714Z,10.89
2023-02-13T12:24:22.884Z,11.27
2023-02-13T12:26:54.645Z,11.81
2023-02-13T12:29:31.111Z,10.87
2023-02-13T12:32:01.368Z,11.68
2023-02-13T12:34:37.352Z,11.83
2023-02-13T12:37:10.798Z,12.08
2023-02-13T12:39:38.922Z,11.53
2023-02-13T12:42:21.622Z,11.71
2023-02-13T12:44:51.656Z,11.86
2023-02-13T12:47:23.058Z,11.77
2023-02-13T12:49:59.308Z,11.95
2023-02-13T12:52:26.726Z,11.50
2023-02-13T12:55:12.356Z,11.41
2023-02-13T12:57:42.694Z,12.30
2023-02-13T13:00:12.847Z,12.42
2023-02-13T13:03:02.669Z,12.29
2023-02-13T13:05:50.651Z,11.49
2023-02-13T13:08:21.965Z,11.92
2023-02-13T13:10:50.905Z,11.54
2023-02-13T13:13:18.573Z,11.31
2023-02-13T13:15:45.960Z,12.46
2023-02-13T13:18:31.579Z,11.73
2023-02-13T13:21:10.358Z,11.63
2023-02-13T13:23:37.451Z,12.04
2023-02-13T13:26:07.465Z,11.93
2023-02-13T13:28:38.352Z,12.14
2023-02-13T13:31:05.889Z,12.25
2023-02-13T13:33:33.680Z,12.60
2023-02-13T13:36:00.786Z,11.93
2023-02-13T13:38:31.527Z,12.56
2023-02-13T13:41:00.583Z,10.78
2023-02-13T13:43:40.381Z,12.12
2023-02-13T13:46:10.323Z,12.50
2023-02-13T13:48:45.406Z,12.76
2023-02-13T13:51:13.009Z,12.47
2023-02-13T13:53:59.228Z,12.99
2023-02-13T13:56:26.888Z,12.02
2023-02-13T13:59:12.928Z,11.52
2023-02-13T14:01:40.169Z,11.10
2023-02-13T14:04:26.245Z,11.17
2023-02-13T14:06:59.568Z,10.96
2023-02-13T14:09:26.958Z,11.26
2023-02-13T14:11:54.838Z,10.68
2023-02-13T14:14:28.267Z,10.43
2023-02-13T14:16:56.363Z,11.31
2023-02-13T14:19:29.629Z,11.69
2023-02-13T14:22:15.624Z,12.01
2023-02-13T14:24:44.299Z,11.47
2023-02-13T14:27:19.949Z,11.55
2023-02-13T14:29:47.741Z,11.69
2023-02-13T14:32:16.598Z,10.75
2023-02-13T14:34:48.256Z,10.89
2023-02-13T14:37:30.266Z,10.96
2023-02-13T14:40:29.708Z,12.10
2023-02-13T14:43:00.559Z,12.30
2023-02-13T14:45:29.042Z,12.13
2023-02-13T14:47:57.018Z,12.39
2023-02-13T14:50:25.347Z,12.54
2023-02-13T14:52:52.492Z,11.61
2023-02-13T14:55:31.892Z,12.15
2023-02-13T14:58:06.957Z,11.26
2023-02-13T15:00:34.368Z,12.36
2023-02-13T15:03:04.147Z,12.58
2023-02-13T15:05:34.147Z,12.26
2023-02-13T15:08:28.191Z,12.19
2023-02-13T15:10:56.064Z,12.90
2023-02-13T15:13:31.233Z,12.78
2023-02-13T15:16:09.136Z,12.12
2023-02-13T15:18:39.572Z,12.58
2023-02-13T15:21:25.191Z,13.05
2023-02-13T15:23:53.382Z,12.87
2023-02-13T15:26:22.777Z,12.80
2023-02-13T15:29:17.374Z,13.13
2023-02-13T15:31:53.190Z,13.20
2023-02-13T15:34:32.306Z,13.40
2023-02-13T15:37:00.031Z,13.31
2023-02-13T15:39:28.752Z,13.73
2023-02-13T15:41:58.442Z,13.95
2023-02-13T15:44:26.050Z,14.01
2023-02-13T15:46:53.992Z,13.58
2023-02-13T15:49:22.299Z,13.99
2023-02-13T15:51:50.058Z,14.07
2023-02-13T15:54:24.062Z,13.49
2023-02-13T15:56:52.645Z,13.40
2023-02-13T15:59:19.883Z,13.72
2023-02-13T16:01:49.331Z,13.62
2023-02-13T16:04:20.690Z,13.33
2023-02-13T16:06:49.356Z,13.72
2023-02-13T16:09:29.650Z,13.68
2023-02-13T16:12:00.520Z,13.18
2023-02-13T16:14:28.457Z,13.07
2023-02-13T16:16:56.112Z,13.25
2023-02-13T16:19:23.840Z,13.76
2023-02-13T16:21:51.547Z,13.46
2023-02-13T16:24:19.180Z,13.45
2023-02-13T16:26:47.497Z,13.71
2023-02-13T16:29:19.132Z,14.14
2023-02-13T16:31:50.017Z,13.88
2023-02-13T16:34:28.141Z,14.05
2023-02-13T16:36:56.153Z,13.73
2023-02-13T16:39:29.120Z,13.62
2023-02-13T16:42:00.382Z,13.79
2023-02-13T16:44:28.815Z,14.08
2023-02-13T16:46:58.920Z,14.19
2023-02-13T16:49:28.494Z,14.20
2023-02-13T16:52:15.880Z,14.04
2023-02-13T16:54:51.918Z,13.80
2023-02-13T16:57:24.574Z,13.76
2023-02-13T16:59:56.080Z,13.58
2023-02-13T17:02:29.973Z,13.70
2023-02-13T17:05:10.067Z,13.64
2023-02-13T17:07:38.816Z,13.31
2023-02-13T17:10:09.097Z,13.23
2023-02-13T17:12:37.647Z,13.28
2023-02-13T17:15:07.922Z,12.93
2023-02-13T17:17:37.446Z,13.18
2023-02-13T17:20:06.599Z,13.07
2023-02-13T17:22:39.620Z,13.24
2023-02-13T17:25:16.244Z,13.33
2023-02-13T17:27:44.258Z,13.19
2023-02-13T17:30:15.949Z,13.10
2023-02-13T17:32:43.735Z,13.12
2023-02-13T17:35:13.358Z,13.11
2023-02-13T17:37:42.300Z,13.14
2023-02-13T17:40:14.924Z,12.91
2023-02-13T17:42:44.188Z,13.00
2023-02-13T17:45:14.359Z,12.58
2023-02-13T17:47:42.575Z,12.56
2023-02-13T17:50:11.140Z,12.89
2023-02-13T17:52:39.419Z,12.62
2023-02-13T17:55:15.598Z,12.58
2023-02-13T17:57:44.377Z,12.17
2023-02-13T18:00:12.522Z,12.41
2023-02-13T18:02:42.896Z,12.02
2023-02-13T18:05:11.242Z,12.04
2023-02-13T18:07:41.323Z,11.98
2023-02-13T18:10:13.131Z,11.84
2023-02-13T18:12:43.023Z,12.20
2023-02-13T18:15:11.736Z,12.30
2023-02-13T18:17:41.512Z,11.96
2023-02-13T18:20:12.057Z,11.89
2023-02-13T18:22:41.586Z,12.07
2023-02-13T18:25:10.611Z,12.10
2023-02-13T18:27:39.312Z,12.05
2023-02-13T18:30:09.092Z,12.08
2023-02-13T18:32:38.056Z,12.21
2023-02-13T18:35:07.962Z,12.33
2023-02-13T18:37:37.375Z,12.38
2023-02-13T18:40:12.414Z,11.81
2023-02-13T18:42:40.863Z,11.90
2023-02-13T18:45:14.124Z,11.87
2023-02-13T18:47:42.885Z,11.91
2023-02-13T18:50:12.005Z,11.85
2023-02-13T18:52:40.436Z,11.79
2023-02-13T18:55:10.476Z,11.78
2023-02-13T18:57:43.790Z,11.82
2023-02-13T19:00:14.563Z,11.86
2023-02-13T19:02:44.718Z,11.59
2023-02-13T19:05:13.196Z,11.78
2023-02-13T19:07:41.265Z,11.77
2023-02-13T19:10:10.647Z,11.76
2023-02-13T19:12:38.613Z,11.67
2023-02-13T19:15:09.003Z,11.51
2023-02-13T19:17:37.777Z,11.43
2023-02-13T19:20:07.106Z,11.53
2023-02-13T19:22:35.785Z,11.63
2023-02-13T19:25:05.167Z,11.69
2023-02-13T19:27:36.849Z,11.55
2023-02-13T19:30:05.795Z,11.62
2023-02-13T19:32:33.248Z,11.43
2023-02-13T19:35:04.127Z,11.41
2023-02-13T19:37:43.457Z,10.67
2023-02-13T19:40:13.575Z,10.94
2023-02-13T19:42:44.550Z,10.95
2023-02-13T19:45:16.045Z,11.17
2023-02-13T19:47:49.672Z,10.56
2023-02-13T19:50:21.686Z,10.52
2023-02-13T19:52:52.007Z,10.58
2023-02-13T19:55:22.722Z,10.45
2023-02-13T19:57:56.978Z,10.42
2023-02-13T20:00:25.880Z,9.73
2023-02-13T20:02:55.653Z,9.96
2023-02-13T20:05:24.413Z,9.94
2023-02-13T20:07:53.903Z,10.07
2023-02-13T20:10:23.315Z,10.32
2023-02-13T20:12:54.806Z,10.30
2023-02-13T20:15:24.233Z,10.07
2023-02-13T20:17:52.324Z,10.18
2023-02-13T20:20:20.027Z,10.24
2023-02-13T20:22:49.609Z,10.16
2023-02-13T20:25:19.316Z,10.39
2023-02-13T20:27:53.305Z,10.07
2023-02-13T20:30:22.070Z,9.96
2023-02-13T20:32:50.604Z,10.16
2023-02-13T20:35:19.274Z,10.17
2023-02-13T20:37:47.384Z,9.21
2023-02-13T20:40:14.888Z,9.70
2023-02-13T20:42:43.893Z,10.22
2023-02-13T20:45:12.820Z,9.79
2023-02-13T20:47:43.309Z,10.04
2023-02-13T20:50:11.645Z,10.53
2023-02-13T20:52:40.666Z,10.44
2023-02-13T20:55:08.533Z,10.66
2023-02-13T20:57:36.981Z,10.83
2023-02-13T21:00:06.438Z,10.86
2023-02-13T21:02:37.023Z,10.90
2023-02-13T21:05:05.253Z,10.50
2023-02-13T21:07:33.081Z,10.70
2023-02-13T21:10:02.784Z,10.80
2023-02-13T21:12:30.951Z,10.77
2023-02-13T21:14:59.144Z,10.83
2023-02-13T21:17:27.224Z,10.56
2023-02-13T21:19:56.001Z,10.40
2023-02-13T21:22:23.684Z,10.30
2023-02-13T21:24:52.562Z,10.57
2023-02-13T21:27:21.151Z,10.45
2023-02-13T21:29:49.117Z,10.47
2023-02-13T21:32:17.391Z,10.26
2023-02-13T21:34:46.894Z,9.97
2023-02-13T21:37:15.124Z,9.64
2023-02-13T21:39:42.500Z,10.07
2023-02-13T21:42:10.470Z,10.10
2023-02-13T21:44:37.925Z,10.22
2023-02-13T21:47:07.093Z,9.97
2023-02-13T21:49:35.874Z,10.07
2023-02-13T21:52:03.148Z,10.23
2023-02-13T21:54:30.540Z,10.38
2023-02-13T21:56:58.478Z,10.17
2023-02-13T21:59:25.825Z,9.93
2023-02-13T22:01:54.464Z,9.90
2023-02-13T22:04:23.243Z,9.78
2023-02-13T22:06:51.172Z,9.59
2023-02-13T22:09:19.532Z,9.43
2023-02-13T22:11:47.008Z,9.48
2023-02-13T22:14:17.033Z,9.47
2023-02-13T22:16:45.068Z,9.45
2023-02-13T22:19:14.853Z,9.48
2023-02-13T22:21:42.206Z,9.55
2023-02-13T22:24:09.429Z,9.23
2023-02-13T22:26:38.000Z,9.40
2023-02-13T22:29:06.765Z,9.41
2023-02-13T22:31:34.345Z,9.35
2023-02-13T22:34:04.246Z,9.05
2023-02-13T22:36:32.760Z,9.20
2023-02-13T22:38:59.965Z,9.55
2023-02-13T22:41:27.646Z,9.13
2023-02-13T22:43:58.246Z,8.84
2023-02-13T22:46:32.238Z,8.66
2023-02-13T22:49:00.009Z,8.68
2023-02-13T22:51:28.528Z,8.64
2023-02-13T22:53:56.568Z,8.41
2023-02-13T22:56:25.841Z,8.75
2023-02-13T22:58:53.032Z,9.05
2023-02-13T23:01:21.085Z,9.13
2023-02-13T23:03:48.597Z,9.00
2023-02-13T23:06:15.990Z,8.63
2023-02-13T23:08:43.489Z,9.02
2023-02-13T23:11:31.007Z,8.70
2023-02-13T23:13:58.261Z,9.10
2023-02-13T23:16:25.940Z,9.01
2023-02-13T23:18:56.638Z,9.09
2023-02-13T23:21:24.461Z,8.89
2023-02-13T23:23:52.049Z,8.97
2023-02-13T23:26:19.222Z,8.83
2023-02-13T23:28:46.401Z,8.81
2023-02-13T23:31:13.975Z,8.96
2023-02-13T23:33:41.188Z,9.03
2023-02-13T23:36:08.352Z,9.19
2023-02-13T23:38:35.791Z,8.83
2023-02-13T23:41:09.281Z,8.80
2023-02-13T23:43:36.750Z,8.62
2023-02-13T23:46:04.641Z,8.00
2023-02-13T23:48:31.902Z,7.63
2023-02-13T23:50:59.720Z,8.14
2023-02-13T23:53:27.020Z,8.66
2023-02-13T23:55:55.076Z,8.55
2023-02-13T23:58:22.592Z,8.67
